sensor_id;sensor_type;location;lat;lon;timestamp;P1;durP1;ratioP1;P2;durP2;ratioP2
17436;SDS011;8836;52.272;5.134;2022-07-24T00:01:12;4.60;;;4.20;;
17436;SDS011;8836;52.272;5.134;2022-07-24T00:03:39;4.40;;;4.00;;
17436;SDS011;8836;52.272;5.134;2022-07-24T00:06:06;4.13;;;3.80;;
17436;SDS011;8836;52.272;5.134;2022-07-24T00:08:33;4.60;;;4.20;;
17436;SDS011;8836;52.272;5.134;2022-07-24T00:11:01;4.35;;;3.97;;
17436;SDS011;8836;52.272;5.134;2022-07-24T00:13:28;5.60;;;4.40;;
17436;SDS011;8836;52.272;5.134;2022-07-24T00:15:55;5.20;;;4.30;;
17436;SDS011;8836;52.272;5.134;2022-07-24T00:18:22;4.90;;;4.50;;
17436;SDS011;8836;52.272;5.134;2022-07-24T00:20:49;4.50;;;4.10;;
17436;SDS011;8836;52.272;5.134;2022-07-24T00:23:16;4.80;;;4.30;;
17436;SDS011;8836;52.272;5.134;2022-07-24T00:25:43;5.30;;;4.82;;
17436;SDS011;8836;52.272;5.134;2022-07-24T00:28:12;4.38;;;4.05;;
17436;SDS011;8836;52.272;5.134;2022-07-24T00:30:38;4.38;;;3.97;;
17436;SDS011;8836;52.272;5.134;2022-07-24T00:33:05;4.93;;;4.15;;
17436;SDS011;8836;52.272;5.134;2022-07-24T00:35:32;4.57;;;4.18;;
17436;SDS011;8836;52.272;5.134;2022-07-24T00:38:00;4.32;;;3.92;;
17436;SDS011;8836;52.272;5.134;2022-07-24T00:40:27;4.68;;;4.38;;
17436;SDS011;8836;52.272;5.134;2022-07-24T00:42:55;4.22;;;3.92;;
17436;SDS011;8836;52.272;5.134;2022-07-24T00:45:24;4.80;;;4.32;;
17436;SDS011;8836;52.272;5.134;2022-07-24T00:47:51;4.78;;;4.38;;
17436;SDS011;8836;52.272;5.134;2022-07-24T00:50:18;6.47;;;4.50;;
17436;SDS011;8836;52.272;5.134;2022-07-24T00:52:45;4.97;;;4.50;;
17436;SDS011;8836;52.272;5.134;2022-07-24T00:55:13;4.88;;;4.47;;
17436;SDS011;8836;52.272;5.134;2022-07-24T00:57:41;4.60;;;4.20;;
17436;SDS011;8836;52.272;5.134;2022-07-24T01:00:11;4.68;;;4.38;;
17436;SDS011;8836;52.272;5.134;2022-07-24T01:02:41;5.03;;;4.50;;
17436;SDS011;8836;52.272;5.134;2022-07-24T01:05:08;5.75;;;4.07;;
17436;SDS011;8836;52.272;5.134;2022-07-24T01:07:37;4.55;;;4.15;;
17436;SDS011;8836;52.272;5.134;2022-07-24T01:10:05;4.85;;;4.45;;
17436;SDS011;8836;52.272;5.134;2022-07-24T01:12:34;4.93;;;4.53;;
17436;SDS011;8836;52.272;5.134;2022-07-24T01:15:02;4.68;;;4.28;;
17436;SDS011;8836;52.272;5.134;2022-07-24T01:17:33;4.72;;;4.32;;
17436;SDS011;8836;52.272;5.134;2022-07-24T01:20:04;4.93;;;4.32;;
17436;SDS011;8836;52.272;5.134;2022-07-24T01:22:35;5.25;;;4.72;;
17436;SDS011;8836;52.272;5.134;2022-07-24T01:25:03;5.72;;;5.22;;
17436;SDS011;8836;52.272;5.134;2022-07-24T01:27:31;5.20;;;4.80;;
17436;SDS011;8836;52.272;5.134;2022-07-24T01:29:58;5.40;;;4.93;;
17436;SDS011;8836;52.272;5.134;2022-07-24T01:32:24;4.93;;;4.55;;
17436;SDS011;8836;52.272;5.134;2022-07-24T01:34:51;5.45;;;4.97;;
17436;SDS011;8836;52.272;5.134;2022-07-24T01:37:18;4.63;;;4.22;;
17436;SDS011;8836;52.272;5.134;2022-07-24T01:39:47;5.25;;;4.75;;
17436;SDS011;8836;52.272;5.134;2022-07-24T01:42:13;4.75;;;4.35;;
17436;SDS011;8836;52.272;5.134;2022-07-24T01:44:40;4.80;;;4.40;;
17436;SDS011;8836;52.272;5.134;2022-07-24T01:47:07;5.03;;;4.60;;
17436;SDS011;8836;52.272;5.134;2022-07-24T01:49:34;4.32;;;3.92;;
17436;SDS011;8836;52.272;5.134;2022-07-24T01:52:02;3.78;;;3.47;;
17436;SDS011;8836;52.272;5.134;2022-07-24T01:54:29;4.13;;;3.65;;
17436;SDS011;8836;52.272;5.134;2022-07-24T01:56:58;3.97;;;3.67;;
17436;SDS011;8836;52.272;5.134;2022-07-24T01:59:25;3.88;;;3.53;;
17436;SDS011;8836;52.272;5.134;2022-07-24T02:01:51;3.83;;;3.53;;
17436;SDS011;8836;52.272;5.134;2022-07-24T02:04:18;3.90;;;3.60;;
17436;SDS011;8836;52.272;5.134;2022-07-24T02:06:45;3.85;;;3.55;;
17436;SDS011;8836;52.272;5.134;2022-07-24T02:09:12;3.75;;;3.45;;
17436;SDS011;8836;52.272;5.134;2022-07-24T02:11:39;3.80;;;3.50;;
17436;SDS011;8836;52.272;5.134;2022-07-24T02:14:07;4.22;;;3.83;;
17436;SDS011;8836;52.272;5.134;2022-07-24T02:16:34;3.60;;;3.30;;
17436;SDS011;8836;52.272;5.134;2022-07-24T02:19:01;3.83;;;3.35;;
17436;SDS011;8836;52.272;5.134;2022-07-24T02:21:28;3.65;;;3.35;;
17436;SDS011;8836;52.272;5.134;2022-07-24T02:23:55;3.47;;;3.20;;
17436;SDS011;8836;52.272;5.134;2022-07-24T02:26:23;4.22;;;3.90;;
17436;SDS011;8836;52.272;5.134;2022-07-24T02:28:50;3.85;;;3.55;;
17436;SDS011;8836;52.272;5.134;2022-07-24T02:31:18;3.88;;;3.58;;
17436;SDS011;8836;52.272;5.134;2022-07-24T02:33:45;3.65;;;3.35;;
17436;SDS011;8836;52.272;5.134;2022-07-24T02:36:12;4.10;;;3.80;;
17436;SDS011;8836;52.272;5.134;2022-07-24T02:38:39;4.28;;;3.88;;
17436;SDS011;8836;52.272;5.134;2022-07-24T02:41:07;3.97;;;3.67;;
17436;SDS011;8836;52.272;5.134;2022-07-24T02:43:34;4.40;;;4.05;;
17436;SDS011;8836;52.272;5.134;2022-07-24T02:46:01;4.38;;;4.07;;
17436;SDS011;8836;52.272;5.134;2022-07-24T02:48:29;4.20;;;3.80;;
17436;SDS011;8836;52.272;5.134;2022-07-24T02:50:56;3.50;;;3.28;;
17436;SDS011;8836;52.272;5.134;2022-07-24T02:53:24;4.88;;;3.97;;
17436;SDS011;8836;52.272;5.134;2022-07-24T02:55:51;3.80;;;3.50;;
17436;SDS011;8836;52.272;5.134;2022-07-24T02:58:18;3.83;;;3.53;;
17436;SDS011;8836;52.272;5.134;2022-07-24T03:00:45;4.20;;;3.88;;
17436;SDS011;8836;52.272;5.134;2022-07-24T03:03:12;3.92;;;3.63;;
17436;SDS011;8836;52.272;5.134;2022-07-24T03:05:40;3.60;;;3.30;;
17436;SDS011;8836;52.272;5.134;2022-07-24T03:08:07;3.40;;;3.20;;
17436;SDS011;8836;52.272;5.134;2022-07-24T03:10:34;3.50;;;3.20;;
17436;SDS011;8836;52.272;5.134;2022-07-24T03:13:01;3.60;;;3.30;;
17436;SDS011;8836;52.272;5.134;2022-07-24T03:15:30;3.90;;;3.60;;
17436;SDS011;8836;52.272;5.134;2022-07-24T03:17:58;3.97;;;3.67;;
17436;SDS011;8836;52.272;5.134;2022-07-24T03:20:25;3.85;;;3.55;;
17436;SDS011;8836;52.272;5.134;2022-07-24T03:22:56;3.75;;;3.45;;
17436;SDS011;8836;52.272;5.134;2022-07-24T03:25:24;4.05;;;3.70;;
17436;SDS011;8836;52.272;5.134;2022-07-24T03:27:51;3.85;;;3.53;;
17436;SDS011;8836;52.272;5.134;2022-07-24T03:30:18;4.05;;;3.75;;
17436;SDS011;8836;52.272;5.134;2022-07-24T03:32:46;4.43;;;3.35;;
17436;SDS011;8836;52.272;5.134;2022-07-24T03:35:13;4.05;;;3.72;;
17436;SDS011;8836;52.272;5.134;2022-07-24T03:37:40;4.28;;;3.85;;
17436;SDS011;8836;52.272;5.134;2022-07-24T03:40:09;5.03;;;3.90;;
17436;SDS011;8836;52.272;5.134;2022-07-24T03:42:37;4.47;;;3.80;;
17436;SDS011;8836;52.272;5.134;2022-07-24T03:45:04;4.07;;;3.78;;
17436;SDS011;8836;52.272;5.134;2022-07-24T03:47:32;4.30;;;3.90;;
17436;SDS011;8836;52.272;5.134;2022-07-24T03:49:59;3.90;;;3.60;;
17436;SDS011;8836;52.272;5.134;2022-07-24T03:52:27;4.07;;;3.78;;
17436;SDS011;8836;52.272;5.134;2022-07-24T03:54:54;4.72;;;4.22;;
17436;SDS011;8836;52.272;5.134;2022-07-24T03:57:22;5.72;;;5.22;;
17436;SDS011;8836;52.272;5.134;2022-07-24T03:59:49;4.60;;;4.25;;
17436;SDS011;8836;52.272;5.134;2022-07-24T04:02:17;4.50;;;4.10;;
17436;SDS011;8836;52.272;5.134;2022-07-24T04:04:44;4.38;;;3.97;;
17436;SDS011;8836;52.272;5.134;2022-07-24T04:07:11;3.78;;;3.47;;
17436;SDS011;8836;52.272;5.134;2022-07-24T04:09:38;3.92;;;3.60;;
17436;SDS011;8836;52.272;5.134;2022-07-24T04:12:06;3.78;;;3.47;;
17436;SDS011;8836;52.272;5.134;2022-07-24T04:14:35;4.00;;;3.70;;
17436;SDS011;8836;52.272;5.134;2022-07-24T04:17:02;3.95;;;3.65;;
17436;SDS011;8836;52.272;5.134;2022-07-24T04:19:29;3.88;;;3.58;;
17436;SDS011;8836;52.272;5.134;2022-07-24T04:21:56;4.32;;;3.85;;
17436;SDS011;8836;52.272;5.134;2022-07-24T04:24:23;4.85;;;4.35;;
17436;SDS011;8836;52.272;5.134;2022-07-24T04:26:50;6.90;;;4.13;;
17436;SDS011;8836;52.272;5.134;2022-07-24T04:29:17;3.90;;;3.60;;
17436;SDS011;8836;52.272;5.134;2022-07-24T04:31:45;3.70;;;3.45;;
17436;SDS011;8836;52.272;5.134;2022-07-24T04:34:12;5.47;;;4.20;;
17436;SDS011;8836;52.272;5.134;2022-07-24T04:36:39;5.45;;;4.07;;
17436;SDS011;8836;52.272;5.134;2022-07-24T04:39:06;4.00;;;3.53;;
17436;SDS011;8836;52.272;5.134;2022-07-24T04:41:33;4.43;;;3.95;;
17436;SDS011;8836;52.272;5.134;2022-07-24T04:44:00;4.25;;;3.80;;
17436;SDS011;8836;52.272;5.134;2022-07-24T04:46:27;4.68;;;4.07;;
17436;SDS011;8836;52.272;5.134;2022-07-24T04:48:55;4.43;;;4.03;;
17436;SDS011;8836;52.272;5.134;2022-07-24T04:51:22;4.25;;;3.85;;
17436;SDS011;8836;52.272;5.134;2022-07-24T04:53:49;4.47;;;4.07;;
17436;SDS011;8836;52.272;5.134;2022-07-24T04:56:18;3.70;;;3.40;;
17436;SDS011;8836;52.272;5.134;2022-07-24T04:58:45;5.43;;;4.28;;
17436;SDS011;8836;52.272;5.134;2022-07-24T05:01:11;3.97;;;3.65;;
17436;SDS011;8836;52.272;5.134;2022-07-24T05:03:39;4.22;;;3.83;;
17436;SDS011;8836;52.272;5.134;2022-07-24T05:06:07;4.30;;;4.00;;
17436;SDS011;8836;52.272;5.134;2022-07-24T05:08:34;4.28;;;3.88;;
17436;SDS011;8836;52.272;5.134;2022-07-24T05:11:01;4.00;;;3.67;;
17436;SDS011;8836;52.272;5.134;2022-07-24T05:13:28;5.25;;;3.47;;
17436;SDS011;8836;52.272;5.134;2022-07-24T05:15:55;3.80;;;3.47;;
17436;SDS011;8836;52.272;5.134;2022-07-24T05:18:22;4.47;;;4.07;;
17436;SDS011;8836;52.272;5.134;2022-07-24T05:20:49;4.22;;;3.83;;
17436;SDS011;8836;52.272;5.134;2022-07-24T05:23:17;4.20;;;3.90;;
17436;SDS011;8836;52.272;5.134;2022-07-24T05:25:44;4.50;;;4.10;;
17436;SDS011;8836;52.272;5.134;2022-07-24T05:28:11;4.70;;;4.30;;
17436;SDS011;8836;52.272;5.134;2022-07-24T05:30:38;4.50;;;4.13;;
17436;SDS011;8836;52.272;5.134;2022-07-24T05:33:05;4.30;;;3.90;;
17436;SDS011;8836;52.272;5.134;2022-07-24T05:35:31;4.45;;;4.05;;
17436;SDS011;8836;52.272;5.134;2022-07-24T05:37:58;4.38;;;3.97;;
17436;SDS011;8836;52.272;5.134;2022-07-24T05:40:27;4.47;;;4.07;;
17436;SDS011;8836;52.272;5.134;2022-07-24T05:42:54;4.90;;;4.10;;
17436;SDS011;8836;52.272;5.134;2022-07-24T05:45:21;4.65;;;4.25;;
17436;SDS011;8836;52.272;5.134;2022-07-24T05:47:48;5.22;;;4.75;;
17436;SDS011;8836;52.272;5.134;2022-07-24T05:50:15;4.75;;;4.35;;
17436;SDS011;8836;52.272;5.134;2022-07-24T05:52:42;4.63;;;4.22;;
17436;SDS011;8836;52.272;5.134;2022-07-24T05:55:09;5.05;;;4.65;;
17436;SDS011;8836;52.272;5.134;2022-07-24T05:57:38;4.60;;;4.20;;
17436;SDS011;8836;52.272;5.134;2022-07-24T06:00:05;4.60;;;4.20;;
17436;SDS011;8836;52.272;5.134;2022-07-24T06:02:34;4.93;;;4.43;;
17436;SDS011;8836;52.272;5.134;2022-07-24T06:05:01;5.63;;;4.43;;
17436;SDS011;8836;52.272;5.134;2022-07-24T06:07:28;4.50;;;4.10;;
17436;SDS011;8836;52.272;5.134;2022-07-24T06:09:55;4.65;;;4.25;;
17436;SDS011;8836;52.272;5.134;2022-07-24T06:12:22;4.68;;;3.85;;
17436;SDS011;8836;52.272;5.134;2022-07-24T06:14:50;4.78;;;4.38;;
17436;SDS011;8836;52.272;5.134;2022-07-24T06:17:17;4.32;;;3.92;;
17436;SDS011;8836;52.272;5.134;2022-07-24T06:19:44;3.95;;;3.55;;
17436;SDS011;8836;52.272;5.134;2022-07-24T06:22:11;4.38;;;3.83;;
17436;SDS011;8836;52.272;5.134;2022-07-24T06:24:37;3.78;;;3.40;;
17436;SDS011;8836;52.272;5.134;2022-07-24T06:27:04;3.78;;;3.35;;
17436;SDS011;8836;52.272;5.134;2022-07-24T06:29:31;3.95;;;3.55;;
17436;SDS011;8836;52.272;5.134;2022-07-24T06:32:00;3.47;;;3.17;;
17436;SDS011;8836;52.272;5.134;2022-07-24T06:34:27;3.88;;;3.53;;
17436;SDS011;8836;52.272;5.134;2022-07-24T06:36:54;5.60;;;3.50;;
17436;SDS011;8836;52.272;5.134;2022-07-24T06:39:20;3.85;;;3.40;;
17436;SDS011;8836;52.272;5.134;2022-07-24T06:41:47;4.10;;;3.70;;
17436;SDS011;8836;52.272;5.134;2022-07-24T06:44:14;3.42;;;3.10;;
17436;SDS011;8836;52.272;5.134;2022-07-24T06:46:41;3.15;;;2.85;;
17436;SDS011;8836;52.272;5.134;2022-07-24T06:49:09;3.35;;;3.05;;
17436;SDS011;8836;52.272;5.134;2022-07-24T06:51:36;3.63;;;3.33;;
17436;SDS011;8836;52.272;5.134;2022-07-24T06:54:03;4.05;;;2.72;;
17436;SDS011;8836;52.272;5.134;2022-07-24T06:56:30;4.40;;;3.28;;
17436;SDS011;8836;52.272;5.134;2022-07-24T06:58:57;3.40;;;3.13;;
17436;SDS011;8836;52.272;5.134;2022-07-24T07:01:25;3.70;;;3.28;;
17436;SDS011;8836;52.272;5.134;2022-07-24T07:03:52;2.83;;;2.63;;
17436;SDS011;8836;52.272;5.134;2022-07-24T07:06:20;3.70;;;3.40;;
17436;SDS011;8836;52.272;5.134;2022-07-24T07:08:48;4.53;;;2.67;;
17436;SDS011;8836;52.272;5.134;2022-07-24T07:11:15;2.75;;;2.55;;
17436;SDS011;8836;52.272;5.134;2022-07-24T07:13:42;3.25;;;2.60;;
17436;SDS011;8836;52.272;5.134;2022-07-24T07:16:08;3.92;;;2.72;;
17436;SDS011;8836;52.272;5.134;2022-07-24T07:18:35;3.72;;;2.85;;
17436;SDS011;8836;52.272;5.134;2022-07-24T07:21:03;3.63;;;3.05;;
17436;SDS011;8836;52.272;5.134;2022-07-24T07:23:32;3.05;;;2.75;;
17436;SDS011;8836;52.272;5.134;2022-07-24T07:25:59;3.53;;;2.72;;
17436;SDS011;8836;52.272;5.134;2022-07-24T07:28:25;3.30;;;2.60;;
17436;SDS011;8836;52.272;5.134;2022-07-24T07:30:52;3.17;;;2.45;;
17436;SDS011;8836;52.272;5.134;2022-07-24T07:33:19;3.40;;;2.67;;
17436;SDS011;8836;52.272;5.134;2022-07-24T07:35:46;4.22;;;2.40;;
17436;SDS011;8836;52.272;5.134;2022-07-24T07:38:14;3.33;;;2.50;;
17436;SDS011;8836;52.272;5.134;2022-07-24T07:40:42;3.15;;;2.20;;
17436;SDS011;8836;52.272;5.134;2022-07-24T07:43:10;2.83;;;2.13;;
17436;SDS011;8836;52.272;5.134;2022-07-24T07:45:37;2.45;;;2.25;;
17436;SDS011;8836;52.272;5.134;2022-07-24T07:48:04;3.70;;;2.30;;
17436;SDS011;8836;52.272;5.134;2022-07-24T07:50:31;3.22;;;2.35;;
17436;SDS011;8836;52.272;5.134;2022-07-24T07:52:58;2.75;;;2.20;;
17436;SDS011;8836;52.272;5.134;2022-07-24T07:55:25;2.60;;;2.35;;
17436;SDS011;8836;52.272;5.134;2022-07-24T07:57:53;3.10;;;2.50;;
17436;SDS011;8836;52.272;5.134;2022-07-24T08:00:20;2.72;;;2.40;;
17436;SDS011;8836;52.272;5.134;2022-07-24T08:02:47;3.47;;;2.40;;
17436;SDS011;8836;52.272;5.134;2022-07-24T08:05:14;2.38;;;2.17;;
17436;SDS011;8836;52.272;5.134;2022-07-24T08:07:41;2.67;;;2.38;;
17436;SDS011;8836;52.272;5.134;2022-07-24T08:10:08;3.03;;;2.67;;
17436;SDS011;8836;52.272;5.134;2022-07-24T08:12:35;2.72;;;2.53;;
17436;SDS011;8836;52.272;5.134;2022-07-24T08:15:05;2.80;;;2.60;;
17436;SDS011;8836;52.272;5.134;2022-07-24T08:17:33;3.45;;;2.45;;
17436;SDS011;8836;52.272;5.134;2022-07-24T08:20:00;2.80;;;2.60;;
17436;SDS011;8836;52.272;5.134;2022-07-24T08:22:27;2.88;;;2.67;;
17436;SDS011;8836;52.272;5.134;2022-07-24T08:24:54;4.20;;;2.75;;
17436;SDS011;8836;52.272;5.134;2022-07-24T08:27:21;2.92;;;2.63;;
17436;SDS011;8836;52.272;5.134;2022-07-24T08:29:48;2.58;;;2.38;;
17436;SDS011;8836;52.272;5.134;2022-07-24T08:32:16;2.47;;;2.28;;
17436;SDS011;8836;52.272;5.134;2022-07-24T08:34:43;3.05;;;2.70;;
17436;SDS011;8836;52.272;5.134;2022-07-24T08:37:10;3.25;;;2.70;;
17436;SDS011;8836;52.272;5.134;2022-07-24T08:39:37;3.60;;;3.05;;
17436;SDS011;8836;52.272;5.134;2022-07-24T08:42:06;3.00;;;2.67;;
17436;SDS011;8836;52.272;5.134;2022-07-24T08:44:33;3.42;;;2.78;;
17436;SDS011;8836;52.272;5.134;2022-07-24T08:47:00;3.05;;;2.28;;
17436;SDS011;8836;52.272;5.134;2022-07-24T08:49:29;3.28;;;2.58;;
17436;SDS011;8836;52.272;5.134;2022-07-24T08:51:59;2.88;;;2.60;;
17436;SDS011;8836;52.272;5.134;2022-07-24T08:54:29;2.80;;;2.45;;
17436;SDS011;8836;52.272;5.134;2022-07-24T08:56:58;3.85;;;3.08;;
17436;SDS011;8836;52.272;5.134;2022-07-24T08:59:25;2.97;;;2.72;;
17436;SDS011;8836;52.272;5.134;2022-07-24T09:01:53;3.80;;;2.90;;
17436;SDS011;8836;52.272;5.134;2022-07-24T09:04:34;2.45;;;2.25;;
17436;SDS011;8836;52.272;5.134;2022-07-24T09:07:04;2.50;;;2.30;;
17436;SDS011;8836;52.272;5.134;2022-07-24T09:09:34;3.03;;;2.72;;
17436;SDS011;8836;52.272;5.134;2022-07-24T09:12:06;2.53;;;2.33;;
17436;SDS011;8836;52.272;5.134;2022-07-24T09:14:38;3.08;;;2.30;;
17436;SDS011;8836;52.272;5.134;2022-07-24T09:17:09;2.65;;;2.45;;
17436;SDS011;8836;52.272;5.134;2022-07-24T09:19:49;2.30;;;2.10;;
17436;SDS011;8836;52.272;5.134;2022-07-24T09:22:25;2.58;;;2.38;;
17436;SDS011;8836;52.272;5.134;2022-07-24T09:25:12;2.72;;;2.40;;
17436;SDS011;8836;52.272;5.134;2022-07-24T09:27:44;2.65;;;2.45;;
17436;SDS011;8836;52.272;5.134;2022-07-24T09:30:21;2.70;;;2.50;;
17436;SDS011;8836;52.272;5.134;2022-07-24T09:32:52;2.45;;;2.05;;
17436;SDS011;8836;52.272;5.134;2022-07-24T09:35:23;3.08;;;2.60;;
17436;SDS011;8836;52.272;5.134;2022-07-24T09:37:56;2.60;;;2.05;;
17436;SDS011;8836;52.272;5.134;2022-07-24T09:40:27;2.60;;;2.40;;
17436;SDS011;8836;52.272;5.134;2022-07-24T09:45:56;2.70;;;2.50;;
17436;SDS011;8836;52.272;5.134;2022-07-24T09:48:29;2.25;;;2.10;;
17436;SDS011;8836;52.272;5.134;2022-07-24T09:51:01;2.83;;;2.13;;
17436;SDS011;8836;52.272;5.134;2022-07-24T09:53:31;2.05;;;1.95;;
17436;SDS011;8836;52.272;5.134;2022-07-24T09:56:01;2.20;;;2.00;;
17436;SDS011;8836;52.272;5.134;2022-07-24T09:58:32;2.40;;;2.20;;
17436;SDS011;8836;52.272;5.134;2022-07-24T10:01:02;2.47;;;2.28;;
17436;SDS011;8836;52.272;5.134;2022-07-24T10:03:32;2.75;;;2.55;;
17436;SDS011;8836;52.272;5.134;2022-07-24T10:06:06;3.45;;;2.80;;
17436;SDS011;8836;52.272;5.134;2022-07-24T10:08:36;3.15;;;2.60;;
17436;SDS011;8836;52.272;5.134;2022-07-24T10:11:05;2.60;;;2.40;;
17436;SDS011;8836;52.272;5.134;2022-07-24T10:13:34;2.53;;;2.33;;
17436;SDS011;8836;52.272;5.134;2022-07-24T10:18:55;2.50;;;2.30;;
17436;SDS011;8836;52.272;5.134;2022-07-24T10:21:26;3.13;;;2.35;;
17436;SDS011;8836;52.272;5.134;2022-07-24T10:24:11;2.72;;;2.03;;
17436;SDS011;8836;52.272;5.134;2022-07-24T10:27:20;2.20;;;2.00;;
17436;SDS011;8836;52.272;5.134;2022-07-24T10:29:52;2.30;;;2.10;;
17436;SDS011;8836;52.272;5.134;2022-07-24T10:32:22;1.98;;;1.80;;
17436;SDS011;8836;52.272;5.134;2022-07-24T10:34:51;2.28;;;2.08;;
17436;SDS011;8836;52.272;5.134;2022-07-24T10:37:31;3.08;;;2.30;;
17436;SDS011;8836;52.272;5.134;2022-07-24T10:40:12;3.00;;;2.42;;
17436;SDS011;8836;52.272;5.134;2022-07-24T10:43:08;2.58;;;2.10;;
17436;SDS011;8836;52.272;5.134;2022-07-24T10:45:42;3.25;;;2.55;;
17436;SDS011;8836;52.272;5.134;2022-07-24T10:48:30;2.72;;;2.20;;
17436;SDS011;8836;52.272;5.134;2022-07-24T10:51:02;4.90;;;3.20;;
17436;SDS011;8836;52.272;5.134;2022-07-24T10:53:50;3.13;;;2.53;;
17436;SDS011;8836;52.272;5.134;2022-07-24T10:56:25;3.03;;;2.42;;
17436;SDS011;8836;52.272;5.134;2022-07-24T10:58:55;2.90;;;2.47;;
17436;SDS011;8836;52.272;5.134;2022-07-24T11:01:36;2.85;;;2.60;;
17436;SDS011;8836;52.272;5.134;2022-07-24T11:04:27;2.13;;;2.03;;
17436;SDS011;8836;52.272;5.134;2022-07-24T11:07:00;3.17;;;2.70;;
17436;SDS011;8836;52.272;5.134;2022-07-24T11:12:28;2.38;;;2.17;;
17436;SDS011;8836;52.272;5.134;2022-07-24T11:14:58;2.05;;;1.95;;
17436;SDS011;8836;52.272;5.134;2022-07-24T11:17:40;2.58;;;2.35;;
17436;SDS011;8836;52.272;5.134;2022-07-24T11:20:09;2.35;;;2.10;;
17436;SDS011;8836;52.272;5.134;2022-07-24T11:22:39;3.88;;;2.40;;
17436;SDS011;8836;52.272;5.134;2022-07-24T11:25:12;2.42;;;2.20;;
17436;SDS011;8836;52.272;5.134;2022-07-24T11:27:52;2.25;;;1.98;;
17436;SDS011;8836;52.272;5.134;2022-07-24T11:30:23;2.45;;;2.13;;
17436;SDS011;8836;52.272;5.134;2022-07-24T11:32:52;3.25;;;2.55;;
17436;SDS011;8836;52.272;5.134;2022-07-24T11:35:26;2.50;;;2.30;;
17436;SDS011;8836;52.272;5.134;2022-07-24T11:37:59;2.28;;;2.17;;
17436;SDS011;8836;52.272;5.134;2022-07-24T11:40:29;2.60;;;2.40;;
17436;SDS011;8836;52.272;5.134;2022-07-24T11:42:56;2.05;;;1.85;;
17436;SDS011;8836;52.272;5.134;2022-07-24T11:45:24;2.63;;;2.42;;
17436;SDS011;8836;52.272;5.134;2022-07-24T11:47:51;2.60;;;2.40;;
17436;SDS011;8836;52.272;5.134;2022-07-24T11:50:20;2.60;;;2.40;;
17436;SDS011;8836;52.272;5.134;2022-07-24T11:52:49;2.88;;;2.22;;
17436;SDS011;8836;52.272;5.134;2022-07-24T11:55:17;4.13;;;2.70;;
17436;SDS011;8836;52.272;5.134;2022-07-24T11:57:51;3.03;;;2.47;;
17436;SDS011;8836;52.272;5.134;2022-07-24T12:00:22;3.22;;;2.92;;
17436;SDS011;8836;52.272;5.134;2022-07-24T12:02:52;5.88;;;4.45;;
17436;SDS011;8836;52.272;5.134;2022-07-24T12:05:25;4.05;;;3.65;;
17436;SDS011;8836;52.272;5.134;2022-07-24T12:07:55;5.35;;;4.60;;
17436;SDS011;8836;52.272;5.134;2022-07-24T12:10:25;4.30;;;3.63;;
17436;SDS011;8836;52.272;5.134;2022-07-24T12:12:54;3.45;;;3.15;;
17436;SDS011;8836;52.272;5.134;2022-07-24T12:15:23;3.80;;;2.70;;
17436;SDS011;8836;52.272;5.134;2022-07-24T12:17:52;2.50;;;2.30;;
17436;SDS011;8836;52.272;5.134;2022-07-24T12:20:24;2.55;;;2.35;;
17436;SDS011;8836;52.272;5.134;2022-07-24T12:22:53;3.00;;;2.70;;
17436;SDS011;8836;52.272;5.134;2022-07-24T12:25:22;2.60;;;2.40;;
17436;SDS011;8836;52.272;5.134;2022-07-24T12:27:50;4.03;;;2.75;;
17436;SDS011;8836;52.272;5.134;2022-07-24T12:30:30;2.13;;;2.03;;
17436;SDS011;8836;52.272;5.134;2022-07-24T12:33:00;2.00;;;1.90;;
17436;SDS011;8836;52.272;5.134;2022-07-24T12:35:31;2.15;;;1.95;;
17436;SDS011;8836;52.272;5.134;2022-07-24T12:38:00;2.67;;;2.35;;
17436;SDS011;8836;52.272;5.134;2022-07-24T12:40:30;2.40;;;2.20;;
17436;SDS011;8836;52.272;5.134;2022-07-24T12:43:07;2.72;;;2.08;;
17436;SDS011;8836;52.272;5.134;2022-07-24T12:45:38;2.22;;;2.00;;
17436;SDS011;8836;52.272;5.134;2022-07-24T12:48:10;2.10;;;2.00;;
17436;SDS011;8836;52.272;5.134;2022-07-24T12:50:58;3.17;;;1.98;;
17436;SDS011;8836;52.272;5.134;2022-07-24T12:53:30;2.30;;;2.10;;
17436;SDS011;8836;52.272;5.134;2022-07-24T12:56:00;1.98;;;1.88;;
17436;SDS011;8836;52.272;5.134;2022-07-24T12:58:49;2.25;;;1.90;;
17436;SDS011;8836;52.272;5.134;2022-07-24T13:01:21;2.65;;;1.90;;
17436;SDS011;8836;52.272;5.134;2022-07-24T13:03:52;2.47;;;1.90;;
17436;SDS011;8836;52.272;5.134;2022-07-24T13:06:35;1.92;;;1.83;;
17436;SDS011;8836;52.272;5.134;2022-07-24T13:09:06;2.13;;;1.92;;
17436;SDS011;8836;52.272;5.134;2022-07-24T13:11:35;1.77;;;1.67;;
17436;SDS011;8836;52.272;5.134;2022-07-24T13:14:05;3.55;;;2.38;;
17436;SDS011;8836;52.272;5.134;2022-07-24T13:16:34;2.33;;;2.13;;
17436;SDS011;8836;52.272;5.134;2022-07-24T13:19:04;2.65;;;2.00;;
17436;SDS011;8836;52.272;5.134;2022-07-24T13:21:32;2.38;;;2.00;;
17436;SDS011;8836;52.272;5.134;2022-07-24T13:24:01;2.33;;;1.95;;
17436;SDS011;8836;52.272;5.134;2022-07-24T13:26:28;2.42;;;2.22;;
17436;SDS011;8836;52.272;5.134;2022-07-24T13:28:56;2.25;;;2.05;;
17436;SDS011;8836;52.272;5.134;2022-07-24T13:31:24;2.20;;;2.00;;
17436;SDS011;8836;52.272;5.134;2022-07-24T13:33:51;1.80;;;1.70;;
17436;SDS011;8836;52.272;5.134;2022-07-24T13:36:19;1.60;;;1.50;;
17436;SDS011;8836;52.272;5.134;2022-07-24T13:38:46;1.80;;;1.70;;
17436;SDS011;8836;52.272;5.134;2022-07-24T13:41:13;1.90;;;1.80;;
17436;SDS011;8836;52.272;5.134;2022-07-24T13:43:43;1.60;;;1.50;;
17436;SDS011;8836;52.272;5.134;2022-07-24T13:46:10;2.15;;;1.60;;
17436;SDS011;8836;52.272;5.134;2022-07-24T13:48:40;2.10;;;1.90;;
17436;SDS011;8836;52.272;5.134;2022-07-24T13:51:07;2.53;;;1.85;;
17436;SDS011;8836;52.272;5.134;2022-07-24T13:53:34;2.30;;;2.10;;
17436;SDS011;8836;52.272;5.134;2022-07-24T13:56:03;2.28;;;1.90;;
17436;SDS011;8836;52.272;5.134;2022-07-24T13:58:31;4.65;;;2.95;;
17436;SDS011;8836;52.272;5.134;2022-07-24T14:00:59;3.03;;;2.63;;
17436;SDS011;8836;52.272;5.134;2022-07-24T14:03:26;2.38;;;2.17;;
17436;SDS011;8836;52.272;5.134;2022-07-24T14:05:54;2.47;;;2.28;;
17436;SDS011;8836;52.272;5.134;2022-07-24T14:08:22;2.70;;;2.22;;
17436;SDS011;8836;52.272;5.134;2022-07-24T14:10:49;2.55;;;2.00;;
17436;SDS011;8836;52.272;5.134;2022-07-24T14:13:16;3.15;;;2.47;;
17436;SDS011;8836;52.272;5.134;2022-07-24T14:15:43;2.22;;;2.13;;
17436;SDS011;8836;52.272;5.134;2022-07-24T14:18:10;1.92;;;1.83;;
17436;SDS011;8836;52.272;5.134;2022-07-24T14:20:37;2.30;;;2.10;;
17436;SDS011;8836;52.272;5.134;2022-07-24T14:23:06;1.98;;;1.88;;
17436;SDS011;8836;52.272;5.134;2022-07-24T14:25:33;2.22;;;2.03;;
17436;SDS011;8836;52.272;5.134;2022-07-24T14:28:00;1.90;;;1.80;;
17436;SDS011;8836;52.272;5.134;2022-07-24T14:30:27;2.10;;;2.00;;
17436;SDS011;8836;52.272;5.134;2022-07-24T14:32:54;2.45;;;2.10;;
17436;SDS011;8836;52.272;5.134;2022-07-24T14:35:21;2.20;;;2.00;;
17436;SDS011;8836;52.272;5.134;2022-07-24T14:37:48;2.10;;;1.90;;
17436;SDS011;8836;52.272;5.134;2022-07-24T14:40:17;1.85;;;1.75;;
17436;SDS011;8836;52.272;5.134;2022-07-24T14:42:44;2.28;;;2.10;;
17436;SDS011;8836;52.272;5.134;2022-07-24T14:45:11;2.10;;;1.70;;
17436;SDS011;8836;52.272;5.134;2022-07-24T14:47:38;2.40;;;2.20;;
17436;SDS011;8836;52.272;5.134;2022-07-24T14:50:06;1.80;;;1.70;;
17436;SDS011;8836;52.272;5.134;2022-07-24T14:52:35;1.92;;;1.83;;
17436;SDS011;8836;52.272;5.134;2022-07-24T14:55:03;2.25;;;2.15;;
17436;SDS011;8836;52.272;5.134;2022-07-24T14:57:33;2.08;;;1.88;;
17436;SDS011;8836;52.272;5.134;2022-07-24T15:00:01;1.77;;;1.67;;
17436;SDS011;8836;52.272;5.134;2022-07-24T15:02:29;1.88;;;1.77;;
17436;SDS011;8836;52.272;5.134;2022-07-24T15:04:56;1.88;;;1.77;;
17436;SDS011;8836;52.272;5.134;2022-07-24T15:07:23;1.80;;;1.70;;
17436;SDS011;8836;52.272;5.134;2022-07-24T15:09:51;1.85;;;1.60;;
17436;SDS011;8836;52.272;5.134;2022-07-24T15:12:18;2.20;;;1.95;;
17436;SDS011;8836;52.272;5.134;2022-07-24T15:14:46;2.55;;;2.35;;
17436;SDS011;8836;52.272;5.134;2022-07-24T15:17:13;2.10;;;1.88;;
17436;SDS011;8836;52.272;5.134;2022-07-24T15:19:40;2.35;;;1.92;;